Time;durP1;ratioP1;P1;durP2;ratioP2;P2;SDS_P1;SDS_P2;PMS_P1;PMS_P2;Temp;Humidity;BMP_temperature;BMP_pressure;BME280_temperature;BME280_humidity;BME280_pressure;Samples;Min_cycle;Max_cycle;Signal;HPM_P1;HPM_P2
2024/01/19 05:05:48;;;;;;;0.43;0.43;;;0.00;99.90;;;;;;5784871;23;20239;-63
2024/01/19 05:08:13;;;;;;;0.40;0.40;;;0.00;99.90;;;;;;4976522;28;20187;-62
2024/01/19 05:10:39;;;;;;;0.40;0.40;;;0.00;99.90;;;;;;4976837;28;20214;-65
2024/01/19 05:13:05;;;;;;;0.30;0.30;;;0.00;99.90;;;;;;4976615;28;20243;-64
2024/01/19 05:15:30;;;;;;;0.30;0.30;;;0.00;99.90;;;;;;4975998;28;20705;-65
2024/01/19 05:17:57;;;;;;;0.40;0.40;;;-0.10;99.90;;;;;;4976494;28;20410;-66
2024/01/19 05:20:23;;;;;;;0.40;0.40;;;-0.10;99.90;;;;;;4976420;28;20318;-63
2024/01/19 05:22:48;;;;;;;0.30;0.30;;;-0.10;99.90;;;;;;4976317;28;20200;-65
2024/01/19 05:25:18;;;;;;;0.30;0.30;;;-0.10;99.90;;;;;;4975902;28;20551;-64
2024/01/19 05:27:44;;;;;;;0.40;0.40;;;0.00;99.90;;;;;;4976413;28;20577;-64
2024/01/19 05:30:10;;;;;;;0.40;0.40;;;0.00;99.90;;;;;;4976294;28;20197;-65
2024/01/19 05:32:36;;;;;;;0.40;0.40;;;0.00;99.90;;;;;;4976303;28;20182;-66
2024/01/19 05:35:01;;;;;;;0.40;0.40;;;0.00;99.90;;;;;;4975131;28;20182;-64
2024/01/19 05:37:27;;;;;;;0.47;0.47;;;0.00;99.90;;;;;;4975265;28;20191;-65
2024/01/19 05:39:52;;;;;;;0.30;0.30;;;0.00;99.90;;;;;;4976122;28;20248;-64
2024/01/19 05:42:18;;;;;;;0.40;0.40;;;0.10;99.90;;;;;;4975892;28;20182;-63
2024/01/19 05:44:45;;;;;;;0.40;0.40;;;0.10;99.90;;;;;;4975741;28;20183;-66
2024/01/19 05:47:11;;;;;;;0.40;0.40;;;0.20;99.90;;;;;;4975864;28;20312;-66
2024/01/19 05:49:37;;;;;;;0.30;0.30;;;0.20;99.90;;;;;;4976010;28;20176;-66
2024/01/19 05:52:03;;;;;;;0.30;0.30;;;0.20;99.90;;;;;;4975618;28;20768;-64
2024/01/19 05:54:28;;;;;;;0.90;0.90;;;0.20;99.90;;;;;;4975311;28;20172;-64
2024/01/19 05:56:54;;;;;;;0.40;0.40;;;0.20;99.90;;;;;;4975566;28;20431;-65
2024/01/19 05:59:20;;;;;;;0.40;0.40;;;0.30;99.90;;;;;;4975652;28;20171;-66
2024/01/19 06:01:45;;;;;;;0.50;0.50;;;0.30;99.90;;;;;;4975494;28;20200;-64
2024/01/19 06:04:11;;;;;;;0.50;0.50;;;0.30;99.90;;;;;;4974927;28;20645;-65
2024/01/19 06:06:36;;;;;;;0.30;0.30;;;0.30;99.90;;;;;;4975280;28;20200;-64
2024/01/19 06:09:02;;;;;;;0.60;0.60;;;0.20;99.90;;;;;;4974626;28;20180;-62
2024/01/19 06:11:28;;;;;;;0.50;0.50;;;0.20;99.90;;;;;;4975009;28;20239;-65
2024/01/19 06:13:53;;;;;;;0.30;0.30;;;0.20;99.90;;;;;;4974639;28;20477;-62
2024/01/19 06:16:19;;;;;;;0.50;0.50;;;0.20;99.90;;;;;;4974718;28;20193;-64
2024/01/19 06:18:45;;;;;;;0.37;0.37;;;0.20;99.90;;;;;;4975243;28;20182;-62
2024/01/19 06:21:10;;;;;;;0.40;0.40;;;0.10;99.90;;;;;;4974427;28;20554;-65
2024/01/19 06:23:37;;;;;;;0.50;0.50;;;0.10;99.90;;;;;;4974990;28;20186;-63
2024/01/19 06:26:10;;;;;;;0.30;0.30;;;0.10;99.90;;;;;;4974561;28;21059;-64
2024/01/19 06:28:37;;;;;;;0.40;0.40;;;0.10;99.90;;;;;;4974210;28;20188;-63
2024/01/19 06:31:04;;;;;;;0.38;0.38;;;0.20;99.90;;;;;;4974600;28;20299;-62
2024/01/19 06:33:30;;;;;;;0.40;0.40;;;0.20;99.90;;;;;;4974643;28;20183;-65
2024/01/19 06:35:56;;;;;;;0.40;0.40;;;0.20;99.90;;;;;;4974103;28;20200;-64
2024/01/19 06:38:23;;;;;;;0.40;0.40;;;0.30;99.90;;;;;;4974748;28;20172;-65
2024/01/19 06:40:50;;;;;;;0.88;0.88;;;0.20;99.90;;;;;;4974436;28;20200;-67
2024/01/19 06:43:16;;;;;;;0.30;0.30;;;0.20;99.90;;;;;;4974676;28;20192;-63
2024/01/19 06:45:42;;;;;;;0.30;0.30;;;0.20;99.90;;;;;;4974948;28;20231;-65
2024/01/19 06:48:07;;;;;;;0.40;0.40;;;0.20;99.90;;;;;;4975035;28;20524;-61
2024/01/19 06:50:33;;;;;;;0.30;0.30;;;0.10;99.90;;;;;;4976465;28;20208;-62
2024/01/19 06:53:03;;;;;;;0.30;0.30;;;0.10;99.90;;;;;;4975743;28;20267;-61
2024/01/19 06:55:29;;;;;;;0.30;0.30;;;0.00;99.90;;;;;;4974732;28;20439;-62
2024/01/19 06:57:55;;;;;;;0.40;0.40;;;0.00;99.90;;;;;;4975069;28;20242;-63
2024/01/19 07:00:20;;;;;;;0.40;0.40;;;-0.10;99.90;;;;;;4974424;28;20262;-62
2024/01/19 07:02:46;;;;;;;0.40;0.40;;;0.00;99.90;;;;;;4972243;28;20192;-62
2024/01/19 07:05:12;;;;;;;0.40;0.40;;;0.00;99.90;;;;;;4986115;28;20206;-62
2024/01/19 07:07:38;;;;;;;0.87;0.87;;;0.00;99.90;;;;;;4993506;28;20191;-65
2024/01/19 07:10:03;;;;;;;0.53;0.53;;;0.00;99.90;;;;;;4994218;28;20752;-62
2024/01/19 07:12:29;;;;;;;1.83;1.73;;;0.00;99.90;;;;;;4992435;28;20171;-64
2024/01/19 07:14:55;;;;;;;0.40;0.40;;;-0.10;99.90;;;;;;4993564;28;20489;-63
2024/01/19 07:17:20;;;;;;;0.40;0.40;;;0.00;99.90;;;;;;4994344;28;20186;-62
2024/01/19 07:19:46;;;;;;;0.40;0.40;;;0.00;99.90;;;;;;4993929;28;20182;-63
2024/01/19 07:22:12;;;;;;;0.40;0.40;;;-0.10;99.90;;;;;;4992843;28;20206;-64
2024/01/19 07:24:38;;;;;;;1.07;1.07;;;-0.10;99.90;;;;;;4992387;28;20218;-64
2024/01/19 07:27:04;;;;;;;0.30;0.30;;;0.00;99.90;;;;;;4992518;28;20186;-63
2024/01/19 07:29:33;;;;;;;0.47;0.47;;;0.00;99.90;;;;;;4992574;28;20246;-62
2024/01/19 07:31:59;;;;;;;0.40;0.40;;;0.00;99.90;;;;;;4983905;28;20538;-64
2024/01/19 07:34:25;;;;;;;0.40;0.40;;;0.10;99.90;;;;;;4978683;28;20175;-62
2024/01/19 07:36:51;;;;;;;0.30;0.30;;;0.20;99.90;;;;;;4993056;28;20278;-63
2024/01/19 07:39:23;;;;;;;0.32;0.32;;;0.30;99.90;;;;;;4993279;28;20163;-62
2024/01/19 07:41:50;;;;;;;0.30;0.30;;;0.20;99.90;;;;;;4993182;28;20475;-63
2024/01/19 07:44:16;;;;;;;0.40;0.40;;;0.30;99.90;;;;;;4991620;28;20185;-63
2024/01/19 07:46:41;;;;;;;0.30;0.30;;;0.30;99.90;;;;;;4992256;28;20203;-63
2024/01/19 07:49:07;;;;;;;0.67;0.67;;;0.30;99.90;;;;;;4993028;28;20175;-63
2024/01/19 07:51:32;;;;;;;2.20;2.10;;;0.30;99.90;;;;;;4992776;28;20216;-62
2024/01/19 07:54:01;;;;;;;0.40;0.40;;;0.30;99.90;;;;;;4993185;28;20176;-62
2024/01/19 07:56:26;;;;;;;0.40;0.40;;;0.40;99.90;;;;;;4992486;28;20187;-64
2024/01/19 07:58:52;;;;;;;0.50;0.50;;;0.40;99.90;;;;;;4993913;28;20171;-62
2024/01/19 08:01:17;;;;;;;0.30;0.30;;;0.30;99.90;;;;;;4989889;28;20258;-61
2024/01/19 08:03:43;;;;;;;0.40;0.40;;;0.40;99.90;;;;;;4977680;28;20191;-61
2024/01/19 08:06:09;;;;;;;0.50;0.50;;;0.40;99.90;;;;;;4977273;28;20188;-61
2024/01/19 08:08:35;;;;;;;0.30;0.30;;;0.40;99.90;;;;;;4977405;28;20191;-61
2024/01/19 08:11:00;;;;;;;0.40;0.40;;;0.40;99.90;;;;;;4977601;28;20274;-64
2024/01/19 08:13:26;;;;;;;0.60;0.60;;;0.50;99.90;;;;;;4977418;28;20171;-62
2024/01/19 08:15:52;;;;;;;0.40;0.40;;;0.60;99.90;;;;;;4977010;28;20294;-61
2024/01/19 08:18:17;;;;;;;0.40;0.40;;;0.50;99.90;;;;;;4986557;28;20202;-61
2024/01/19 08:20:43;;;;;;;0.30;0.30;;;0.60;99.90;;;;;;4975925;28;20172;-62
2024/01/19 08:23:09;;;;;;;0.40;0.40;;;0.60;99.90;;;;;;4977115;28;20176;-62
2024/01/19 08:25:34;;;;;;;0.40;0.40;;;0.60;99.90;;;;;;4976823;28;20554;-61
2024/01/19 08:28:00;;;;;;;0.40;0.40;;;0.50;99.90;;;;;;4976951;28;20490;-61
2024/01/19 08:30:26;;;;;;;0.40;0.40;;;0.50;99.90;;;;;;4992629;28;20203;-61
2024/01/19 08:32:52;;;;;;;0.43;0.43;;;0.60;99.90;;;;;;4995235;28;20553;-61
2024/01/19 08:35:18;;;;;;;0.90;0.90;;;0.50;99.90;;;;;;4994876;28;20199;-61
2024/01/19 08:37:44;;;;;;;0.30;0.30;;;0.50;99.90;;;;;;4993843;28;20189;-64
2024/01/19 08:40:11;;;;;;;0.30;0.30;;;0.60;99.90;;;;;;4994921;28;20250;-62
2024/01/19 08:42:38;;;;;;;0.30;0.30;;;0.60;99.90;;;;;;4994992;28;20511;-65
2024/01/19 08:45:05;;;;;;;0.40;0.40;;;0.70;99.90;;;;;;4976896;28;20326;-61
2024/01/19 08:47:30;;;;;;;0.40;0.40;;;0.70;99.90;;;;;;4975262;28;20172;-62
2024/01/19 08:49:56;;;;;;;0.30;0.30;;;0.70;99.90;;;;;;4975033;28;20175;-62
2024/01/19 08:52:22;;;;;;;0.40;0.40;;;0.70;99.90;;;;;;4976033;28;20299;-61
2024/01/19 08:54:48;;;;;;;0.30;0.30;;;0.70;99.90;;;;;;4974996;28;20176;-61
2024/01/19 08:57:13;;;;;;;0.30;0.30;;;0.80;99.90;;;;;;4976608;28;20243;-60
2024/01/19 08:59:39;;;;;;;0.60;0.60;;;1.00;99.90;;;;;;4976796;28;20180;-61
2024/01/19 09:02:05;;;;;;;1.80;1.80;;;1.10;99.90;;;;;;4976607;28;20207;-61
2024/01/19 09:04:33;;;;;;;0.40;0.40;;;1.10;99.90;;;;;;4983890;28;20183;-61
2024/01/19 09:06:59;;;;;;;0.65;0.65;;;1.10;99.90;;;;;;4994282;28;20457;-61
2024/01/19 09:09:25;;;;;;;0.40;0.40;;;1.10;99.90;;;;;;4995828;28;20198;-61
2024/01/19 09:11:50;;;;;;;0.33;0.33;;;1.10;99.90;;;;;;4994725;28;20226;-61
2024/01/19 09:14:16;;;;;;;0.40;0.40;;;1.20;99.90;;;;;;4995417;28;20203;-62
2024/01/19 09:16:44;;;;;;;0.30;0.30;;;1.30;99.90;;;;;;4995658;28;20198;-61
2024/01/19 09:19:14;;;;;;;0.40;0.40;;;1.30;99.90;;;;;;4995099;28;20277;-61
2024/01/19 09:21:44;;;;;;;0.63;0.63;;;1.50;99.90;;;;;;4994166;28;20322;-61
2024/01/19 09:24:10;;;;;;;0.30;0.30;;;1.90;99.90;;;;;;4988415;28;20175;-62
2024/01/19 09:26:35;;;;;;;0.40;0.40;;;2.30;99.90;;;;;;4976057;28;20263;-61
2024/01/19 09:29:01;;;;;;;0.50;0.50;;;2.60;99.90;;;;;;4976216;28;20650;-61
2024/01/19 09:31:27;;;;;;;0.30;0.30;;;2.70;99.90;;;;;;4976212;28;20215;-61
2024/01/19 09:33:52;;;;;;;0.40;0.40;;;2.70;99.90;;;;;;4974848;28;20184;-61
2024/01/19 09:36:18;;;;;;;0.30;0.30;;;2.50;99.90;;;;;;4975526;28;20191;-60
2024/01/19 09:38:43;;;;;;;0.40;0.40;;;2.40;99.90;;;;;;4976201;28;20271;-61
2024/01/19 09:41:20;;;;;;;0.47;0.47;;;2.30;99.90;;;;;;4975970;28;20175;-61
2024/01/19 09:43:48;;;;;;;0.30;0.30;;;2.20;99.90;;;;;;4976157;28;20176;-61
2024/01/19 09:46:21;;;;;;;0.30;0.30;;;2.00;99.90;;;;;;4974251;28;20206;-62
2024/01/19 09:49:01;;;;;;;0.30;0.30;;;2.00;99.90;;;;;;4975989;28;20149;-62
2024/01/19 09:51:39;;;;;;;1.38;1.30;;;2.00;99.90;;;;;;4975772;28;20262;-61
2024/01/19 09:54:08;;;;;;;0.45;0.45;;;2.00;99.90;;;;;;4985499;28;20259;-71
2024/01/19 09:56:35;;;;;;;0.30;0.30;;;2.00;99.90;;;;;;4993631;28;20191;-62
2024/01/19 09:59:04;;;;;;;0.30;0.30;;;2.00;99.90;;;;;;4993571;28;20465;-60
2024/01/19 10:01:30;;;;;;;0.30;0.30;;;1.90;99.90;;;;;;4993233;28;20171;-60
2024/01/19 10:04:00;;;;;;;0.30;0.30;;;1.90;99.90;;;;;;4978184;28;20476;-60
2024/01/19 10:06:26;;;;;;;0.50;0.50;;;1.90;99.90;;;;;;4973407;28;20442;-60
2024/01/19 10:08:56;;;;;;;0.40;0.40;;;1.90;99.90;;;;;;4975482;28;20192;-61
2024/01/19 10:11:23;;;;;;;0.30;0.30;;;1.80;99.90;;;;;;4974935;28;20219;-61
2024/01/19 10:13:49;;;;;;;0.30;0.30;;;1.90;99.90;;;;;;4975118;28;20546;-65
2024/01/19 10:16:14;;;;;;;0.30;0.30;;;1.90;99.90;;;;;;4974711;28;20249;-65
2024/01/19 10:18:41;;;;;;;0.40;0.40;;;2.00;99.90;;;;;;4974972;28;20205;-62
2024/01/19 10:21:07;;;;;;;0.30;0.30;;;2.00;99.90;;;;;;4975011;28;20169;-62
2024/01/19 10:23:33;;;;;;;0.30;0.30;;;2.00;99.90;;;;;;4974586;28;20177;-62
2024/01/19 10:26:17;;;;;;;1.17;1.17;;;2.20;99.90;;;;;;4974330;28;20202;-63
2024/01/19 10:28:43;;;;;;;0.45;0.45;;;2.50;99.90;;;;;;4975094;28;20191;-62
2024/01/19 10:31:22;;;;;;;0.40;0.40;;;3.00;99.90;;;;;;4974930;28;20206;-63
2024/01/19 10:33:58;;;;;;;0.30;0.30;;;3.60;99.90;;;;;;4975147;28;20186;-62
2024/01/19 10:36:26;;;;;;;0.30;0.30;;;4.20;99.90;;;;;;4973172;28;20284;-63
2024/01/19 10:38:51;;;;;;;0.30;0.30;;;4.80;99.90;;;;;;4974874;28;20179;-63
2024/01/19 10:41:24;;;;;;;0.30;0.30;;;5.30;99.90;;;;;;4974767;28;20558;-64
2024/01/19 10:43:50;;;;;;;0.30;0.30;;;5.50;99.90;;;;;;4974770;28;20199;-62
2024/01/19 10:46:21;;;;;;;1.53;0.80;;;5.70;99.90;;;;;;4974335;28;20666;-63
2024/01/19 10:48:50;;;;;;;0.40;0.40;;;5.80;99.90;;;;;;4974763;28;20710;-61
2024/01/19 10:51:19;;;;;;;0.30;0.30;;;5.80;99.90;;;;;;4973187;28;20208;-60
2024/01/19 10:53:51;;;;;;;0.30;0.30;;;5.90;99.90;;;;;;4972975;28;20189;-62
2024/01/19 10:56:21;;;;;;;0.30;0.30;;;6.00;99.90;;;;;;4974181;28;20192;-63
2024/01/19 10:58:47;;;;;;;0.50;0.50;;;5.90;99.90;;;;;;4974660;28;20168;-62
2024/01/19 11:01:17;;;;;;;0.80;0.80;;;5.90;99.90;;;;;;4974120;28;20482;-63
2024/01/19 11:03:43;;;;;;;0.30;0.30;;;5.60;99.90;;;;;;4976108;28;20397;-64
2024/01/19 11:06:10;;;;;;;0.40;0.40;;;5.20;99.90;;;;;;4974325;28;20598;-62
2024/01/19 11:08:39;;;;;;;0.30;0.30;;;5.10;99.90;;;;;;4977760;28;20188;-62
2024/01/19 11:11:05;;;;;;;0.55;0.55;;;4.80;99.90;;;;;;4973768;28;20215;-61
2024/01/19 11:13:49;;;;;;;0.30;0.30;;;4.50;99.90;;;;;;4972514;28;20175;-62
2024/01/19 11:16:24;;;;;;;0.75;0.75;;;4.30;99.90;;;;;;4973389;28;20684;-61
2024/01/19 11:18:51;;;;;;;0.30;0.30;;;4.20;99.90;;;;;;4981108;28;20205;-60
2024/01/19 11:21:17;;;;;;;0.40;0.40;;;4.20;99.90;;;;;;4991883;28;20189;-61
2024/01/19 11:23:43;;;;;;;0.40;0.40;;;4.10;99.90;;;;;;4993435;28;20257;-62
2024/01/19 11:26:22;;;;;;;0.43;0.43;;;3.90;99.90;;;;;;4991275;28;20198;-64
2024/01/19 11:28:59;;;;;;;0.35;0.35;;;3.80;99.90;;;;;;4991914;28;20181;-61
2024/01/19 11:31:33;;;;;;;0.40;0.40;;;3.90;99.90;;;;;;4985429;28;20194;-62
2024/01/19 11:33:59;;;;;;;0.30;0.30;;;3.70;99.90;;;;;;4980735;28;20233;-61
2024/01/19 11:36:39;;;;;;;0.37;0.37;;;3.70;99.90;;;;;;4973030;28;20596;-60
2024/01/19 11:39:05;;;;;;;0.30;0.20;;;3.60;99.90;;;;;;4973624;28;20536;-60
2024/01/19 11:41:35;;;;;;;0.50;0.50;;;3.60;99.90;;;;;;4972538;28;20184;-61
2024/01/19 11:44:03;;;;;;;0.40;0.40;;;3.50;99.90;;;;;;4973884;28;20170;-59
2024/01/19 11:46:50;;;;;;;0.32;0.32;;;3.40;99.90;;;;;;4973223;28;20184;-60
2024/01/19 11:49:30;;;;;;;0.30;0.30;;;3.50;99.90;;;;;;4973520;28;20201;-59
2024/01/19 11:52:01;;;;;;;0.30;0.30;;;3.50;99.90;;;;;;4973400;28;20290;-60
2024/01/19 11:54:29;;;;;;;0.30;0.30;;;3.50;99.90;;;;;;4973451;28;20165;-60
2024/01/19 11:57:16;;;;;;;0.35;0.35;;;3.60;99.90;;;;;;4972266;28;20203;-60
2024/01/19 11:59:46;;;;;;;1.95;1.30;;;3.80;99.90;;;;;;4973150;28;20660;-60
2024/01/19 12:02:22;;;;;;;0.45;0.45;;;3.90;99.90;;;;;;4972291;28;20218;-61
2024/01/19 12:04:48;;;;;;;0.30;0.30;;;4.10;99.90;;;;;;4971647;28;20492;-60
2024/01/19 12:07:23;;;;;;;0.30;0.30;;;4.10;99.90;;;;;;4973091;28;20204;-62
2024/01/19 12:10:08;;;;;;;0.40;0.40;;;4.30;99.90;;;;;;4973557;28;20264;-64
2024/01/19 12:12:34;;;;;;;0.30;0.30;;;4.30;99.90;;;;;;4973588;28;20184;-60
2024/01/19 12:15:02;;;;;;;1.10;1.00;;;4.20;99.90;;;;;;4973009;28;20175;-63
2024/01/19 12:17:28;;;;;;;0.40;0.40;;;4.30;99.90;;;;;;4973382;28;20517;-62
2024/01/19 12:19:54;;;;;;;0.45;0.45;;;4.00;99.90;;;;;;4972021;28;20176;-62
2024/01/19 12:22:21;;;;;;;0.33;0.33;;;3.80;99.90;;;;;;4973430;28;20175;-62
2024/01/19 12:24:47;;;;;;;0.70;0.70;;;3.50;99.90;;;;;;4973151;28;20407;-61
2024/01/19 12:27:23;;;;;;;0.30;0.30;;;3.30;99.90;;;;;;4972039;28;20544;-61
2024/01/19 12:29:48;;;;;;;0.40;0.40;;;3.10;99.90;;;;;;4972161;28;20192;-60
2024/01/19 12:32:18;;;;;;;0.43;0.43;;;2.90;99.90;;;;;;4973432;28;20713;-62
2024/01/19 12:35:01;;;;;;;0.30;0.30;;;2.90;99.90;;;;;;4972506;28;20179;-64
2024/01/19 12:37:29;;;;;;;0.30;0.30;;;2.80;99.90;;;;;;4973512;28;20191;-61
2024/01/19 12:40:09;;;;;;;0.30;0.30;;;2.70;99.90;;;;;;4973141;28;20184;-61
2024/01/19 12:42:36;;;;;;;0.30;0.30;;;2.70;99.90;;;;;;4952767;29;20635;-62
2024/01/19 12:45:03;;;;;;;0.30;0.30;;;2.80;99.90;;;;;;4953552;28;20623;-61
2024/01/19 12:47:28;;;;;;;0.30;0.30;;;2.80;99.90;;;;;;4957222;29;20200;-62
2024/01/19 12:49:57;;;;;;;0.30;0.30;;;2.70;99.90;;;;;;4957796;29;20219;-61
2024/01/19 12:52:23;;;;;;;0.35;0.35;;;2.70;99.90;;;;;;4957700;29;20265;-62
2024/01/19 12:54:49;;;;;;;0.40;0.40;;;2.70;99.90;;;;;;4985384;28;20183;-61
2024/01/19 12:57:18;;;;;;;0.80;0.80;;;2.70;99.90;;;;;;4996282;28;20263;-61
2024/01/19 12:59:46;;;;;;;0.38;0.38;;;2.50;99.90;;;;;;4993179;28;20266;-62
2024/01/19 13:02:14;;;;;;;0.30;0.30;;;2.40;99.90;;;;;;4993451;28;20199;-62
2024/01/19 13:04:39;;;;;;;0.30;0.30;;;2.40;99.90;;;;;;4993845;28;20175;-64
2024/01/19 13:07:05;;;;;;;0.30;0.30;;;2.40;99.90;;;;;;4992744;28;20743;-62
2024/01/19 13:09:30;;;;;;;0.30;0.30;;;2.40;99.90;;;;;;4979579;28;20226;-61
2024/01/19 13:12:09;;;;;;;0.40;0.40;;;2.40;99.90;;;;;;4974603;28;20217;-64
2024/01/19 13:14:35;;;;;;;0.40;0.40;;;2.30;99.90;;;;;;4975502;28;20642;-61
2024/01/19 13:17:03;;;;;;;0.30;0.30;;;2.30;99.90;;;;;;4975196;28;20199;-61
2024/01/19 13:19:29;;;;;;;0.30;0.30;;;2.30;99.90;;;;;;4976424;28;20531;-61
2024/01/19 13:21:56;;;;;;;0.35;0.35;;;2.30;99.90;;;;;;4976521;28;20199;-61
2024/01/19 13:24:24;;;;;;;0.40;0.40;;;2.30;99.90;;;;;;4975890;28;20212;-62
2024/01/19 13:27:02;;;;;;;0.40;0.40;;;2.30;99.90;;;;;;4976596;28;20275;-62
2024/01/19 13:29:28;;;;;;;0.30;0.30;;;2.30;99.90;;;;;;4974945;28;20187;-61
2024/01/19 13:31:54;;;;;;;0.30;0.30;;;2.30;99.90;;;;;;4976315;28;20206;-61
2024/01/19 13:34:26;;;;;;;0.30;0.30;;;2.30;99.90;;;;;;4975789;28;20164;-61
2024/01/19 13:36:52;;;;;;;0.30;0.30;;;2.40;99.90;;;;;;4976050;28;20424;-61
2024/01/19 13:39:17;;;;;;;0.40;0.40;;;2.40;99.90;;;;;;4991195;28;20286;-63
2024/01/19 13:41:43;;;;;;;1.03;0.60;;;2.50;99.90;;;;;;4995633;28;20407;-61
2024/01/19 13:44:09;;;;;;;0.40;0.40;;;2.50;99.90;;;;;;4995278;28;20168;-60
2024/01/19 13:46:34;;;;;;;0.40;0.40;;;2.40;99.90;;;;;;4995047;28;20256;-61
2024/01/19 13:49:00;;;;;;;0.30;0.30;;;2.30;99.90;;;;;;4994046;28;20179;-61
2024/01/19 13:51:26;;;;;;;0.30;0.30;;;2.30;99.90;;;;;;4995281;28;20207;-61
2024/01/19 13:53:51;;;;;;;0.30;0.30;;;2.10;99.90;;;;;;4994934;28;20190;-61
2024/01/19 13:56:17;;;;;;;0.30;0.30;;;2.10;99.90;;;;;;4994660;28;20684;-61
2024/01/19 13:58:43;;;;;;;1.03;0.93;;;2.10;99.90;;;;;;4995208;28;20167;-61
2024/01/19 14:01:10;;;;;;;0.30;0.30;;;2.10;99.90;;;;;;4993869;28;20190;-61
2024/01/19 14:03:37;;;;;;;0.30;0.30;;;2.10;99.90;;;;;;4995141;28;20176;-62
2024/01/19 14:06:03;;;;;;;0.30;0.30;;;2.20;99.90;;;;;;4993377;28;20199;-61
2024/01/19 14:08:30;;;;;;;0.40;0.40;;;2.30;99.90;;;;;;4980630;28;20259;-61
2024/01/19 14:10:56;;;;;;;0.40;0.40;;;2.30;99.90;;;;;;4975537;28;20203;-62
2024/01/19 14:13:21;;;;;;;0.30;0.30;;;2.30;99.90;;;;;;4975643;28;20255;-62
2024/01/19 14:15:48;;;;;;;0.30;0.30;;;2.20;99.90;;;;;;4974833;28;20244;-61
2024/01/19 14:18:17;;;;;;;0.35;0.35;;;2.20;99.90;;;;;;4974362;28;20230;-61
2024/01/19 14:20:44;;;;;;;0.30;0.30;;;2.20;99.90;;;;;;4975462;28;20231;-61
2024/01/19 14:23:10;;;;;;;0.40;0.40;;;2.20;99.90;;;;;;4975075;28;20245;-61
2024/01/19 14:25:36;;;;;;;0.30;0.30;;;2.20;99.90;;;;;;4974762;28;20282;-61
2024/01/19 14:28:01;;;;;;;0.70;0.70;;;2.10;99.90;;;;;;4974750;28;20419;-61
2024/01/19 14:30:28;;;;;;;0.30;0.30;;;2.00;99.90;;;;;;4974643;28;20211;-62
2024/01/19 14:32:55;;;;;;;0.30;0.30;;;1.90;99.90;;;;;;4975016;28;20168;-61
2024/01/19 14:35:22;;;;;;;0.38;0.38;;;1.80;99.90;;;;;;4974456;28;20199;-61
2024/01/19 14:37:48;;;;;;;0.30;0.30;;;1.70;99.90;;;;;;4987320;28;20183;-61
2024/01/19 14:40:14;;;;;;;0.30;0.30;;;1.50;99.90;;;;;;4994012;28;20187;-60
2024/01/19 14:42:40;;;;;;;0.35;0.35;;;1.50;99.90;;;;;;4992807;28;20258;-60
2024/01/19 14:45:07;;;;;;;0.30;0.30;;;1.50;99.90;;;;;;4993598;28;20258;-62
2024/01/19 14:47:36;;;;;;;0.30;0.30;;;1.30;99.90;;;;;;4992768;28;20762;-60
2024/01/19 14:50:06;;;;;;;0.40;0.40;;;1.30;99.90;;;;;;4994105;28;20227;-67
2024/01/19 14:52:32;;;;;;;0.40;0.40;;;1.20;99.90;;;;;;4979838;28;20183;-61
2024/01/19 14:55:04;;;;;;;0.40;0.40;;;1.10;99.90;;;;;;4974031;28;20168;-61
2024/01/19 14:57:30;;;;;;;0.32;0.32;;;1.10;99.90;;;;;;4973617;28;20171;-62
2024/01/19 14:59:56;;;;;;;0.40;0.40;;;1.10;99.90;;;;;;4974662;28;20196;-64
2024/01/19 15:02:22;;;;;;;0.30;0.30;;;1.00;99.90;;;;;;4974307;28;20217;-61
2024/01/19 15:04:47;;;;;;;0.30;0.30;;;1.00;99.90;;;;;;4974047;28;20445;-63
2024/01/19 15:07:14;;;;;;;0.40;0.40;;;1.00;99.90;;;;;;4974174;28;20215;-62
2024/01/19 15:09:44;;;;;;;0.50;0.50;;;1.00;99.90;;;;;;4972542;28;20176;-63
2024/01/19 15:12:09;;;;;;;0.50;0.50;;;1.00;99.90;;;;;;4972860;28;20207;-63
2024/01/19 15:14:35;;;;;;;0.40;0.40;;;1.10;99.90;;;;;;4974059;28;20199;-63
2024/01/19 15:17:05;;;;;;;0.40;0.40;;;1.10;99.90;;;;;;4974303;28;20654;-63
2024/01/19 15:19:30;;;;;;;0.30;0.30;;;1.10;99.90;;;;;;4974054;28;20168;-62
2024/01/19 15:21:56;;;;;;;0.30;0.30;;;1.00;99.90;;;;;;4974080;28;20168;-64
2024/01/19 15:24:22;;;;;;;0.30;0.30;;;1.00;99.90;;;;;;4973595;28;20747;-62
2024/01/19 15:26:48;;;;;;;0.40;0.40;;;0.90;99.90;;;;;;4974107;28;20194;-63
2024/01/19 15:29:14;;;;;;;0.40;0.40;;;0.80;99.90;;;;;;4973990;28;20175;-62
2024/01/19 15:31:40;;;;;;;0.30;0.30;;;0.70;99.90;;;;;;4973844;28;20812;-64
2024/01/19 15:34:06;;;;;;;0.43;0.43;;;0.50;99.90;;;;;;4977403;28;20189;-63
2024/01/19 15:36:34;;;;;;;0.40;0.40;;;0.40;99.90;;;;;;4993208;28;20279;-62
2024/01/19 15:39:03;;;;;;;0.50;0.50;;;0.40;99.90;;;;;;4993132;28;20167;-63
2024/01/19 15:41:32;;;;;;;0.30;0.30;;;0.30;99.90;;;;;;4991830;28;20263;-62
2024/01/19 15:43:57;;;;;;;0.40;0.40;;;0.20;99.90;;;;;;4993215;28;20270;-63
2024/01/19 15:46:24;;;;;;;0.50;0.50;;;0.10;99.90;;;;;;4992796;28;20703;-62
2024/01/19 15:48:54;;;;;;;0.40;0.40;;;0.00;99.90;;;;;;4992864;28;20179;-64
2024/01/19 15:51:24;;;;;;;0.50;0.50;;;-0.10;99.90;;;;;;4991597;28;20635;-63
2024/01/19 15:53:53;;;;;;;0.40;0.40;;;-0.10;99.90;;;;;;4992944;28;20595;-63
2024/01/19 15:56:23;;;;;;;0.40;0.40;;;-0.10;99.90;;;;;;4992880;28;20601;-62
2024/01/19 15:58:50;;;;;;;0.40;0.40;;;-0.20;99.90;;;;;;4991832;28;20596;-66
2024/01/19 16:01:16;;;;;;;0.50;0.50;;;-0.30;99.90;;;;;;4993298;28;20181;-63
2024/01/19 16:03:42;;;;;;;0.30;0.30;;;-0.30;99.90;;;;;;4992554;28;20201;-67
2024/01/19 16:06:11;;;;;;;0.30;0.30;;;-0.30;99.90;;;;;;4981489;28;20713;-64
2024/01/19 16:08:38;;;;;;;0.30;0.30;;;-0.30;99.90;;;;;;4973279;28;20583;-65
2024/01/19 16:11:07;;;;;;;0.50;0.50;;;-0.30;99.90;;;;;;4973490;28;20194;-64
2024/01/19 16:13:33;;;;;;;0.40;0.40;;;-0.20;99.90;;;;;;4973580;28;20166;-65
2024/01/19 16:16:07;;;;;;;0.50;0.50;;;-0.20;99.90;;;;;;4971860;28;20203;-65
2024/01/19 16:18:36;;;;;;;0.52;0.52;;;-0.20;99.90;;;;;;4979154;28;20413;-65
2024/01/19 16:21:05;;;;;;;0.40;0.40;;;-0.10;99.90;;;;;;4995664;28;20178;-64
2024/01/19 16:23:34;;;;;;;0.40;0.40;;;-0.10;99.90;;;;;;4997126;28;20656;-64
2024/01/19 16:25:59;;;;;;;0.30;0.30;;;0.00;99.90;;;;;;4996268;28;20241;-64
2024/01/19 16:28:25;;;;;;;0.40;0.40;;;0.00;99.90;;;;;;4995440;28;20262;-62
2024/01/19 16:30:51;;;;;;;0.40;0.40;;;0.00;99.90;;;;;;4996456;28;20204;-63
2024/01/19 16:33:17;;;;;;;0.30;0.30;;;0.10;99.90;;;;;;4991204;28;20582;-65
2024/01/19 16:35:42;;;;;;;0.50;0.50;;;0.10;99.90;;;;;;4976972;28;20430;-63
2024/01/19 16:38:08;;;;;;;1.17;1.17;;;0.10;99.90;;;;;;4977550;28;20407;-64
2024/01/19 16:40:33;;;;;;;0.40;0.40;;;0.10;99.90;;;;;;4977100;28;20184;-64
2024/01/19 16:42:59;;;;;;;0.40;0.40;;;0.20;99.90;;;;;;4975831;28;20586;-66
2024/01/19 16:45:25;;;;;;;0.40;0.40;;;0.20;99.90;;;;;;4993942;28;20234;-64
2024/01/19 16:47:54;;;;;;;0.40;0.40;;;0.20;99.90;;;;;;4994218;28;20637;-64
2024/01/19 16:50:20;;;;;;;0.30;0.30;;;0.20;99.90;;;;;;4975178;28;20184;-63
2024/01/19 16:52:48;;;;;;;0.30;0.30;;;0.20;99.90;;;;;;4976549;28;20227;-64
2024/01/19 16:55:16;;;;;;;0.40;0.40;;;0.20;99.90;;;;;;4976509;28;20188;-63
2024/01/19 16:57:42;;;;;;;0.30;0.30;;;0.20;99.90;;;;;;4977000;28;20594;-63
2024/01/19 17:00:08;;;;;;;0.30;0.30;;;0.20;99.90;;;;;;4994209;28;20270;-64
2024/01/19 17:02:34;;;;;;;0.40;0.40;;;0.20;99.90;;;;;;4996184;28;20403;-64
2024/01/19 17:05:00;;;;;;;0.40;0.40;;;0.20;99.90;;;;;;4995972;28;20175;-64
2024/01/19 17:07:25;;;;;;;0.40;0.40;;;0.20;99.90;;;;;;4995971;28;20558;-62
2024/01/19 17:09:51;;;;;;;0.30;0.30;;;0.20;99.90;;;;;;4994805;28;20325;-64
2024/01/19 17:12:17;;;;;;;0.40;0.40;;;0.20;99.90;;;;;;4995897;28;20194;-64
2024/01/19 17:14:42;;;;;;;0.50;0.50;;;0.10;99.90;;;;;;4979727;28;20176;-64
2024/01/19 17:17:08;;;;;;;0.40;0.40;;;0.20;99.90;;;;;;4977491;28;20578;-63
2024/01/19 17:19:33;;;;;;;0.50;0.50;;;0.20;99.90;;;;;;4977620;28;20250;-63
2024/01/19 17:21:59;;;;;;;0.30;0.30;;;0.20;99.90;;;;;;4978497;28;20172;-63
2024/01/19 17:24:25;;;;;;;0.40;0.40;;;0.10;99.90;;;;;;4977316;28;20585;-64
2024/01/19 17:26:52;;;;;;;0.40;0.40;;;0.10;99.90;;;;;;4978008;28;20199;-63
2024/01/19 17:29:18;;;;;;;0.30;0.30;;;0.00;99.90;;;;;;4979729;28;20591;-62
2024/01/19 17:31:43;;;;;;;0.30;0.30;;;0.00;99.90;;;;;;4978447;28;20192;-63
2024/01/19 17:34:09;;;;;;;0.30;0.30;;;0.00;99.90;;;;;;4976938;28;20171;-63
2024/01/19 17:36:35;;;;;;;0.40;0.40;;;0.00;99.90;;;;;;4976357;28;20205;-65
2024/01/19 17:39:02;;;;;;;0.50;0.50;;;0.00;99.90;;;;;;4976336;28;20250;-64
2024/01/19 17:41:27;;;;;;;0.40;0.40;;;0.00;99.90;;;;;;4974928;28;20175;-66
2024/01/19 17:43:53;;;;;;;0.40;0.40;;;0.00;99.90;;;;;;4977047;28;20183;-64
2024/01/19 17:46:20;;;;;;;0.30;0.30;;;-0.10;99.90;;;;;;4977745;28;20303;-63
2024/01/19 17:48:47;;;;;;;0.30;0.30;;;0.00;99.90;;;;;;4978617;28;20415;-63
2024/01/19 17:51:12;;;;;;;0.30;0.30;;;0.00;99.90;;;;;;4977226;28;20204;-63
2024/01/19 17:53:38;;;;;;;0.40;0.40;;;0.00;99.90;;;;;;4976479;28;20255;-62
2024/01/19 17:56:04;;;;;;;0.30;0.30;;;0.00;99.90;;;;;;4974932;28;20267;-63
2024/01/19 17:58:29;;;;;;;0.30;0.30;;;0.00;99.90;;;;;;4987972;28;20179;-63
2024/01/19 18:00:55;;;;;;;0.40;0.40;;;0.00;99.90;;;;;;4985795;28;20473;-64